EDDMTNCM

Guest
Details From EDDM - Muenchen Franz-josef Strauss
To TNCM - St Maarten - Princess Juliana Intl
Flight Number -
Tags Generated
Created
Modified
Stats Distance 4,003 nm / 7,414 km
Max Altitude 0 ft / 0 m
Waypoints 6
Social Downloads 6
Likes 0
Share VATSIM

Download

Looking for another format? Having issues loading an existing format? Contact us
Advertisement - Login to hide

Notes

Generated

Route

EDDM OBAKI GONEK KEREB MNOLO TNCM

ID Type Via Altitude Latitude Longitude Leg Dist Tot Dist Heading (true) Name
O EDDM APT - 0 ft / 0 m 48.34069˚ 11.75108˚ - 0 nm - -
OBAKI FIX - 0 ft / 0 m 48.36583˚ 6.43056˚ 212 nm 212 nm 272° / 268° -
GONEK FIX - 0 ft / 0 m 48.12000˚ 0.60333˚ 233 nm 445 nm 269° / 264° -
KEREB FIX - 0 ft / 0 m 47.59139˚ -4.52472˚ 209 nm 654 nm 263° / 259° -
MNOLO FIX - 0 ft / 0 m 18.34556˚ -62.80211˚ 3322 nm 3977 nm 259° / 224° -
O TNCM APT - 0 ft / 0 m 18.03937˚ -63.11961˚ 25 nm 4003 nm 225° / 225° -

Altitude Profile

Advertisement - Login to hide

Weather


0- 5 10 15 20 25 30 35+ Temperature / ° C

Clouds and Precipitation
Forecast for 2017-12-14 06:00 UTC. Updated an hour ago

Ground ~20,000 ft ~40,000 ft Winds

EDDM

Details ICAO EDDM (MUC)
Name Muenchen Franz-Josef Strauss
Region Germany - Civil
Timezone Europe/Berlin (UTC+1.0)
Stats Elevation 1,487 ft / 453 m (AMSL)
Location 48.353786° 11.786117°
Runways 2
Magnetic Variation 3.161° E

METAR

EDDM 140620Z 24025G35KT 9999 -SHRA VCTS FEW030 SCT034CB BKN100 07/02 Q0997 TEMPO 24035G50KT 4000 TSRA BKN015CB

Decode

TAF

TAF EDDM 140500Z 1406/1512 25020G35KT 9999 SCT020 BKN040 TEMPO 1406/1410 26030G45KT 4000 SHRA BKN020TCU PROB30 TEMPO 1407/1409 TSGS BKN014CB BECMG 1416/1418 22010KT TEMPO 1421/1507 4000 RASN BKN008

Decode

Departure Runways

ID Width Length Bearing (true) Bearing (mag) Surface Threshold Offset Overrun Length
08L 197 ft / 60 m 13,086 ft / 3,989 m 83.38° 80.22° Concrete 0 ft / 0 m 0 ft / 0 m
08R 197 ft / 60 m 13,086 ft / 3,989 m 83.37° 80.21° Concrete 0 ft / 0 m 0 ft / 0 m
26L 197 ft / 60 m 13,086 ft / 3,989 m 263.41° 260.25° Concrete 0 ft / 0 m 0 ft / 0 m
26R 197 ft / 60 m 13,086 ft / 3,989 m 263.42° 260.26° Concrete 0 ft / 0 m 0 ft / 0 m

TNCM

Details ICAO TNCM (SXM)
Name St Maarten - Princess Juliana Intl
Region Caribbean Netherlands, Aruba, Curaçao, Sint Maarten
Timezone Unknown (UTC+0.0)
Stats Elevation 12 ft / 4 m (AMSL)
Location 18.040889° -63.108974°
Runways 1
Magnetic Variation 14.325° W

METAR

Not found

TAF

TNCM 140527Z 1406/1506 09008KT P6SM SCT020

Decode

Destination Runways

ID Width Length Bearing (true) Bearing (mag) Surface Threshold Offset Overrun Length
10 148 ft / 45 m 7,464 ft / 2,275 m 81.43° 95.76° Asphalt 0 ft / 0 m 151 ft / 46 m
28 148 ft / 45 m 7,464 ft / 2,275 m 261.44° 275.77° Asphalt 397 ft / 121 m 0 ft / 0 m

Popular Alternatives